Time;durP1;ratioP1;P1;durP2;ratioP2;P2;SDS_P1;SDS_P2;PMS_P1;PMS_P2;Temp;Humidity;BMP_temperature;BMP_pressure;BME280_temperature;BME280_humidity;BME280_pressure;Samples;Min_cycle;Max_cycle;Signal;HPM_P1;HPM_P2
2022/09/29 00:00:54;;;;;;;8.70;5.82;;;5.60;99.90;;;;;;4996578;28;20043;-70
2022/09/29 00:03:20;;;;;;;9.52;6.22;;;5.60;99.90;;;;;;4997298;28;20030;-70
2022/09/29 00:05:51;;;;;;;8.80;6.43;;;5.70;99.90;;;;;;4996184;28;20430;-70
2022/09/29 00:08:19;;;;;;;10.93;6.38;;;5.70;99.90;;;;;;4996607;28;20030;-70
2022/09/29 00:10:45;;;;;;;9.15;7.03;;;5.70;99.90;;;;;;4996569;28;20102;-70
2022/09/29 00:13:11;;;;;;;10.77;7.15;;;5.80;99.90;;;;;;4995939;28;20022;-70
2022/09/29 00:15:37;;;;;;;11.13;7.78;;;5.90;99.90;;;;;;4996442;28;20114;-70
2022/09/29 00:18:03;;;;;;;11.68;7.38;;;5.90;99.90;;;;;;4997260;28;20105;-70
2022/09/29 00:20:29;;;;;;;13.82;7.95;;;6.00;99.90;;;;;;4996303;28;20044;-70
2022/09/29 00:22:54;;;;;;;8.65;6.70;;;6.00;99.90;;;;;;4996567;28;20474;-70
2022/09/29 00:25:20;;;;;;;9.48;7.68;;;5.90;99.90;;;;;;4995084;28;20030;-70
2022/09/29 00:27:45;;;;;;;15.57;6.68;;;5.90;99.90;;;;;;4996519;28;20026;-70
2022/09/29 00:30:11;;;;;;;11.95;6.82;;;5.80;99.90;;;;;;4996151;28;20030;-70
2022/09/29 00:32:37;;;;;;;8.77;6.82;;;5.80;99.90;;;;;;4996300;28;20478;-70
2022/09/29 00:35:03;;;;;;;11.25;6.72;;;5.80;99.90;;;;;;4995714;28;20041;-70
2022/09/29 00:37:28;;;;;;;11.50;7.95;;;5.80;99.90;;;;;;4996356;28;20540;-70
2022/09/29 00:39:54;;;;;;;13.07;7.93;;;5.90;99.90;;;;;;4978568;28;20402;-70
2022/09/29 00:42:20;;;;;;;8.77;7.00;;;5.90;99.90;;;;;;4995379;28;20018;-70
2022/09/29 00:44:48;;;;;;;10.32;6.97;;;5.90;99.90;;;;;;4995946;28;20386;-70
2022/09/29 00:47:16;;;;;;;11.30;6.85;;;5.90;99.90;;;;;;4996082;28;20027;-70
2022/09/29 00:49:49;;;;;;;9.45;6.78;;;5.90;99.90;;;;;;4995952;28;20037;-70
2022/09/29 00:52:36;;;;;;;13.68;6.43;;;5.80;99.90;;;;;;4995807;28;20030;-70
2022/09/29 00:55:12;;;;;;;9.10;5.82;;;5.80;99.90;;;;;;4995483;28;20038;-70
2022/09/29 00:58:04;;;;;;;11.02;6.00;;;5.80;99.90;;;;;;4996057;28;20124;-70
2022/09/29 01:00:30;;;;;;;10.63;6.00;;;5.80;99.90;;;;;;4995515;28;20048;-70
2022/09/29 01:03:18;;;;;;;8.75;5.88;;;5.80;99.90;;;;;;4995924;28;20513;-70
2022/09/29 01:05:56;;;;;;;7.45;5.80;;;5.80;99.90;;;;;;4978102;28;20019;-70
2022/09/29 01:08:37;;;;;;;6.95;5.38;;;5.80;99.90;;;;;;4995836;28;20022;-70
2022/09/29 01:11:04;;;;;;;9.15;5.82;;;5.90;99.90;;;;;;4995047;28;20099;-70
2022/09/29 01:13:31;;;;;;;9.93;6.10;;;5.90;99.90;;;;;;4977904;28;20049;-70
2022/09/29 01:15:57;;;;;;;8.48;6.00;;;5.90;99.90;;;;;;4995391;28;20101;-70
2022/09/29 01:18:23;;;;;;;6.82;5.38;;;5.90;99.90;;;;;;4995069;28;20202;-70
2022/09/29 01:21:00;;;;;;;7.35;5.20;;;6.00;99.90;;;;;;4995569;28;20026;-70
2022/09/29 01:23:32;;;;;;;10.77;6.30;;;6.00;99.90;;;;;;4995768;28;20202;-70
2022/09/29 01:26:29;;;;;;;8.50;5.60;;;6.10;99.90;;;;;;4978162;28;20414;-70
2022/09/29 01:29:38;;;;;;;7.20;5.40;;;6.10;99.90;;;;;;4995605;28;20466;-70
2022/09/29 01:32:45;;;;;;;7.70;5.60;;;6.10;99.90;;;;;;4994800;28;20030;-70
2022/09/29 01:35:21;;;;;;;9.75;5.50;;;6.10;99.90;;;;;;4971917;28;20398;-70
2022/09/29 01:38:03;;;;;;;8.80;5.40;;;6.20;99.90;;;;;;4995301;28;20039;-70
2022/09/29 01:40:42;;;;;;;9.35;6.80;;;6.10;99.90;;;;;;4994466;28;20467;-71
2022/09/29 01:43:14;;;;;;;7.00;5.05;;;6.10;99.90;;;;;;4995218;28;20019;-70
2022/09/29 01:45:49;;;;;;;9.05;5.68;;;6.10;99.90;;;;;;4995127;28;20109;-70
2022/09/29 01:48:22;;;;;;;6.35;4.78;;;6.10;99.90;;;;;;4995002;28;20029;-70
2022/09/29 01:50:51;;;;;;;8.60;5.68;;;6.20;99.90;;;;;;4994649;28;20022;-70
2022/09/29 01:53:34;;;;;;;9.88;5.90;;;6.20;99.90;;;;;;4994636;28;20026;-70
2022/09/29 01:56:06;;;;;;;10.88;5.00;;;6.20;99.90;;;;;;4994253;28;20027;-70
2022/09/29 01:58:53;;;;;;;9.25;5.82;;;6.30;99.90;;;;;;4994591;28;20062;-70
2022/09/29 02:01:22;;;;;;;7.50;5.18;;;6.20;99.90;;;;;;4994602;28;20026;-70
2022/09/29 02:03:59;;;;;;;9.10;5.28;;;6.20;99.90;;;;;;4993911;28;20486;-70
2022/09/29 02:06:36;;;;;;;7.43;4.80;;;6.30;99.90;;;;;;4994449;28;20463;-70
2022/09/29 02:09:07;;;;;;;6.72;4.93;;;6.30;99.90;;;;;;4994727;28;20022;-70
2022/09/29 02:11:37;;;;;;;6.95;5.43;;;6.30;99.90;;;;;;4994612;28;20536;-70
2022/09/29 02:14:17;;;;;;;7.32;4.40;;;6.40;99.90;;;;;;4993995;28;20033;-70
2022/09/29 02:16:48;;;;;;;9.07;5.38;;;6.40;99.90;;;;;;4994366;28;20065;-70
2022/09/29 02:19:17;;;;;;;10.02;5.63;;;6.50;99.90;;;;;;4994344;28;20128;-70
2022/09/29 02:21:43;;;;;;;10.10;5.22;;;6.50;99.90;;;;;;4994273;28;20535;-70
2022/09/29 02:24:11;;;;;;;8.20;5.45;;;6.60;99.90;;;;;;4977606;28;20116;-70
2022/09/29 02:26:36;;;;;;;6.22;4.47;;;6.60;99.90;;;;;;4993700;28;20112;-70
2022/09/29 02:29:03;;;;;;;7.53;4.80;;;6.60;99.90;;;;;;4994135;28;20422;-70
2022/09/29 02:31:31;;;;;;;6.10;4.60;;;6.60;99.90;;;;;;4994074;28;20029;-70
2022/09/29 02:33:57;;;;;;;6.30;4.35;;;6.70;99.90;;;;;;4994609;28;20037;-70
2022/09/29 02:36:53;;;;;;;10.82;4.15;;;6.70;99.90;;;;;;4994063;28;20022;-70
2022/09/29 02:39:45;;;;;;;9.70;4.47;;;6.80;99.90;;;;;;4982713;28;20530;-70
2022/09/29 02:42:28;;;;;;;6.00;4.20;;;6.80;99.90;;;;;;4976507;28;20033;-70
2022/09/29 02:45:15;;;;;;;8.93;5.15;;;6.90;99.90;;;;;;4994031;28;20029;-70
2022/09/29 02:48:02;;;;;;;6.25;4.32;;;6.90;99.90;;;;;;4998137;28;20438;-70
2022/09/29 02:50:46;;;;;;;8.77;4.20;;;6.90;99.90;;;;;;5000670;28;20520;-70
2022/09/29 02:53:11;;;;;;;;;;;7.00;99.90;;;;;;5000486;28;20116;-70
2022/09/29 02:55:43;;;;;;;5.88;4.03;;;7.00;99.90;;;;;;5000408;28;20001;-70
2022/09/29 02:58:45;;;;;;;5.95;3.70;;;7.10;99.90;;;;;;5000379;28;20022;-70
2022/09/29 03:01:15;;;;;;;6.63;4.97;;;7.10;99.90;;;;;;5023248;23;20049;-70
2022/09/29 03:03:41;;;;;;;6.50;4.45;;;7.10;99.90;;;;;;5080085;28;20406;-69
2022/09/29 03:06:06;;;;;;;9.15;4.32;;;7.20;99.90;;;;;;5079269;28;20031;-69
2022/09/29 03:08:32;;;;;;;8.02;3.88;;;7.20;99.90;;;;;;5080239;28;20028;-69
2022/09/29 03:10:58;;;;;;;5.43;3.58;;;7.20;99.90;;;;;;5080231;28;20032;-69
2022/09/29 03:13:24;;;;;;;6.65;3.65;;;7.30;99.90;;;;;;5079681;28;20027;-69
2022/09/29 03:15:49;;;;;;;7.07;4.28;;;7.30;99.90;;;;;;5079683;28;20028;-69
2022/09/29 03:18:15;;;;;;;9.20;4.03;;;7.30;99.90;;;;;;5079035;28;20032;-69
2022/09/29 03:20:40;;;;;;;6.30;4.20;;;7.30;99.90;;;;;;5079794;28;20024;-69
2022/09/29 03:23:06;;;;;;;4.88;3.38;;;7.30;99.90;;;;;;5079619;28;20048;-69
2022/09/29 03:25:31;;;;;;;6.03;4.03;;;7.30;99.90;;;;;;5079759;28;20491;-69
2022/09/29 03:27:57;;;;;;;9.73;5.03;;;7.20;99.90;;;;;;5079549;28;20056;-69
2022/09/29 03:30:22;;;;;;;8.73;4.13;;;7.30;99.90;;;;;;5079542;28;20032;-69
2022/09/29 03:32:48;;;;;;;5.97;3.90;;;7.20;99.90;;;;;;5078904;28;20032;-69
2022/09/29 03:35:14;;;;;;;7.95;4.63;;;7.30;99.90;;;;;;5079765;28;20028;-69
2022/09/29 03:37:40;;;;;;;5.20;4.03;;;7.30;99.90;;;;;;5079963;28;20479;-69
2022/09/29 03:40:06;;;;;;;6.47;3.63;;;7.30;99.90;;;;;;5079623;28;20112;-69
2022/09/29 03:42:32;;;;;;;6.72;4.43;;;7.40;99.90;;;;;;5079453;28;20013;-70
2022/09/29 03:44:57;;;;;;;11.35;4.28;;;7.40;99.90;;;;;;5079690;28;20082;-69
2022/09/29 03:47:23;;;;;;;9.43;3.40;;;7.40;99.90;;;;;;5078858;28;20031;-69
2022/09/29 03:49:49;;;;;;;7.07;4.22;;;7.50;99.90;;;;;;5079409;28;20537;-69
2022/09/29 03:52:14;;;;;;;6.43;4.55;;;7.60;99.90;;;;;;5077080;28;20495;-70
2022/09/29 03:54:40;;;;;;;8.63;4.25;;;7.60;99.90;;;;;;5079270;28;20044;-70
2022/09/29 03:57:05;;;;;;;8.73;4.63;;;7.60;99.90;;;;;;5079784;28;20020;-70
2022/09/29 03:59:31;;;;;;;10.35;4.22;;;7.60;99.90;;;;;;5076775;28;20036;-70
2022/09/29 04:01:56;;;;;;;5.28;3.55;;;7.60;99.90;;;;;;5075400;28;20107;-69
2022/09/29 04:04:22;;;;;;;5.03;3.33;;;7.60;99.90;;;;;;5074181;28;20024;-69
2022/09/29 04:06:48;;;;;;;7.80;3.60;;;7.60;99.90;;;;;;5061252;28;20036;-69
2022/09/29 04:09:13;;;;;;;13.57;4.18;;;7.60;99.90;;;;;;5056039;28;20052;-69
2022/09/29 04:11:39;;;;;;;7.28;4.05;;;7.70;99.90;;;;;;5073281;28;20506;-69
2022/09/29 04:14:05;;;;;;;6.57;3.63;;;7.70;99.90;;;;;;5075847;28;20027;-69
2022/09/29 04:16:30;;;;;;;5.28;3.92;;;7.80;99.90;;;;;;5075816;28;20028;-69
2022/09/29 04:18:56;;;;;;;6.05;3.60;;;7.80;99.90;;;;;;5075709;28;20498;-69
2022/09/29 04:21:21;;;;;;;6.25;3.05;;;7.80;99.90;;;;;;5075637;28;20024;-69
2022/09/29 04:23:48;;;;;;;6.18;4.43;;;7.80;99.90;;;;;;5075656;28;20434;-69
2022/09/29 04:26:14;;;;;;;5.78;3.78;;;7.80;99.90;;;;;;5075156;28;20027;-69
2022/09/29 04:28:40;;;;;;;12.88;4.35;;;7.80;99.90;;;;;;5075705;28;20040;-69
2022/09/29 04:31:06;;;;;;;10.95;3.15;;;7.80;99.90;;;;;;5075735;28;20032;-69
2022/09/29 04:33:31;;;;;;;4.25;3.38;;;7.80;99.90;;;;;;5075798;28;20029;-69
2022/09/29 04:35:58;;;;;;;4.72;3.22;;;7.90;99.90;;;;;;5075488;28;20036;-69
2022/09/29 04:38:24;;;;;;;4.30;3.15;;;7.90;99.90;;;;;;5075348;28;20036;-69
2022/09/29 04:40:49;;;;;;;6.22;3.42;;;7.90;99.90;;;;;;5074934;28;20055;-69
2022/09/29 04:43:15;;;;;;;78.25;32.50;;;7.90;99.90;;;;;;5075367;28;20063;-70
2022/09/29 04:45:40;;;;;;;23.30;8.90;;;7.90;99.90;;;;;;5075415;28;20032;-70
2022/09/29 04:48:06;;;;;;;34.13;11.45;;;8.00;99.90;;;;;;5075451;28;20050;-70
2022/09/29 04:50:32;;;;;;;23.90;10.57;;;8.00;99.90;;;;;;5075118;28;20025;-70
2022/09/29 04:52:58;;;;;;;20.45;10.57;;;8.00;99.90;;;;;;5072718;28;20028;-69
2022/09/29 04:55:23;;;;;;;28.70;11.38;;;8.00;99.90;;;;;;5058780;28;20361;-69
2022/09/29 04:57:49;;;;;;;28.58;12.52;;;8.10;99.90;;;;;;5055582;28;20029;-69
2022/09/29 05:00:15;;;;;;;41.17;16.17;;;8.10;99.90;;;;;;5055769;28;20072;-69
2022/09/29 05:02:42;;;;;;;34.67;17.38;;;8.10;99.90;;;;;;5074261;28;20028;-69
2022/09/29 05:05:09;;;;;;;20.73;9.95;;;8.10;99.90;;;;;;5074917;28;20396;-69
2022/09/29 05:07:36;;;;;;;13.82;7.28;;;8.10;99.90;;;;;;5075140;28;20044;-69
2022/09/29 05:10:02;;;;;;;11.10;4.88;;;8.10;99.90;;;;;;5074489;28;20472;-69
2022/09/29 05:12:28;;;;;;;9.65;4.45;;;8.20;99.90;;;;;;5074640;28;20392;-69
2022/09/29 05:14:53;;;;;;;6.22;3.67;;;8.20;99.90;;;;;;5074701;28;20032;-69
2022/09/29 05:17:19;;;;;;;7.07;3.92;;;8.20;99.90;;;;;;5074157;28;20437;-69
2022/09/29 05:19:44;;;;;;;5.93;3.92;;;8.30;99.90;;;;;;5074707;28;20430;-69
2022/09/29 05:22:10;;;;;;;5.82;4.45;;;8.30;99.90;;;;;;5074384;28;20426;-69
2022/09/29 05:24:36;;;;;;;5.78;3.90;;;8.30;99.90;;;;;;5074774;28;20465;-69
2022/09/29 05:27:01;;;;;;;6.82;4.63;;;8.30;99.90;;;;;;5073973;28;20020;-69
2022/09/29 05:29:27;;;;;;;6.40;4.35;;;8.40;99.90;;;;;;5074443;28;20096;-69
2022/09/29 05:31:52;;;;;;;8.00;4.93;;;8.40;99.90;;;;;;5074274;28;20028;-69
2022/09/29 05:34:18;;;;;;;6.43;4.13;;;8.40;99.90;;;;;;5074570;28;20024;-69
2022/09/29 05:36:44;;;;;;;5.65;4.80;;;8.40;99.90;;;;;;5074297;28;20051;-69
2022/09/29 05:39:10;;;;;;;7.25;4.30;;;8.40;99.90;;;;;;5074231;28;20028;-69
2022/09/29 05:41:35;;;;;;;6.75;4.28;;;8.50;99.90;;;;;;5073659;28;20526;-69
2022/09/29 05:44:01;;;;;;;8.38;5.22;;;8.40;99.90;;;;;;5074084;28;20037;-70
2022/09/29 05:46:27;;;;;;;7.30;4.32;;;8.50;99.90;;;;;;5074082;28;20024;-70
2022/09/29 05:48:53;;;;;;;7.97;4.13;;;8.50;99.90;;;;;;5074005;28;20024;-69
2022/09/29 05:51:21;;;;;;;7.90;3.95;;;8.50;99.90;;;;;;5074104;28;20031;-69
2022/09/29 05:53:47;;;;;;;5.35;3.92;;;8.50;99.90;;;;;;5073478;28;20481;-69
2022/09/29 05:56:22;;;;;;;4.57;3.38;;;8.50;99.90;;;;;;5073820;28;20055;-69
2022/09/29 05:58:47;;;;;;;6.22;4.70;;;8.50;99.90;;;;;;5073744;28;20039;-69
2022/09/29 06:01:19;;;;;;;7.88;4.80;;;8.50;99.90;;;;;;5073824;28;20033;-69
2022/09/29 06:03:45;;;;;;;10.75;5.57;;;8.60;99.90;;;;;;5073768;28;20055;-69
2022/09/29 06:06:14;;;;;;;15.10;6.38;;;8.60;99.90;;;;;;5073430;28;20105;-69
2022/09/29 06:08:40;;;;;;;6.20;4.78;;;8.60;99.90;;;;;;5074048;28;20109;-69
2022/09/29 06:11:11;;;;;;;8.23;4.47;;;8.70;99.90;;;;;;5073715;28;20055;-69
2022/09/29 06:13:38;;;;;;;8.05;5.00;;;8.70;99.90;;;;;;5073774;28;20021;-68
2022/09/29 06:16:04;;;;;;;16.70;6.22;;;8.70;99.90;;;;;;5073581;28;20029;-69
2022/09/29 06:18:30;;;;;;;8.05;5.40;;;8.70;99.90;;;;;;5073127;28;20100;-68
2022/09/29 06:21:01;;;;;;;8.52;5.18;;;8.70;99.90;;;;;;5073431;28;20366;-68
2022/09/29 06:23:26;;;;;;;10.57;5.38;;;8.70;99.90;;;;;;5073205;28;20017;-68
2022/09/29 06:25:56;;;;;;;12.35;4.63;;;8.70;99.90;;;;;;5073059;28;20054;-69
2022/09/29 06:28:22;;;;;;;8.05;4.85;;;8.80;99.90;;;;;;5073753;28;20051;-69
2022/09/29 06:30:48;;;;;;;7.00;5.18;;;8.80;99.90;;;;;;5073385;28;20507;-69
2022/09/29 06:33:13;;;;;;;14.10;4.70;;;8.80;99.90;;;;;;5073856;28;20028;-69
2022/09/29 06:38:32;;;;;;;6.82;4.20;;;8.90;99.90;;;;;;5073568;28;20537;-68
2022/09/29 06:40:58;;;;;;;6.78;4.47;;;8.90;99.90;;;;;;5073513;28;20369;-68
2022/09/29 06:43:24;;;;;;;8.27;5.20;;;8.90;99.90;;;;;;5073199;28;20028;-69
2022/09/29 06:45:49;;;;;;;5.60;4.13;;;9.00;99.90;;;;;;5073363;28;20020;-69
2022/09/29 06:48:15;;;;;;;6.15;4.43;;;9.00;99.90;;;;;;5072777;28;20456;-69
2022/09/29 06:50:40;;;;;;;8.55;4.50;;;9.00;99.90;;;;;;5073241;28;20086;-69
2022/09/29 06:53:06;;;;;;;6.22;4.13;;;9.00;99.90;;;;;;5071925;28;20035;-69
2022/09/29 06:55:31;;;;;;;11.48;5.05;;;9.10;99.90;;;;;;5072813;28;20533;-69
2022/09/29 06:57:57;;;;;;;17.42;4.75;;;9.10;99.90;;;;;;5073194;28;20028;-69
2022/09/29 07:00:22;;;;;;;6.80;4.05;;;9.10;99.90;;;;;;5072939;28;20021;-69
2022/09/29 07:02:48;;;;;;;7.53;3.60;;;9.20;99.90;;;;;;5072455;28;20051;-69
2022/09/29 07:05:15;;;;;;;7.88;3.83;;;9.20;99.90;;;;;;5073120;28;20456;-69
2022/09/29 07:07:41;;;;;;;5.47;3.85;;;9.20;99.90;;;;;;5073126;28;20502;-68
2022/09/29 07:10:08;;;;;;;5.50;3.67;;;9.30;99.90;;;;;;5073580;28;20056;-68
2022/09/29 07:12:33;;;;;;;5.35;3.50;;;9.30;99.90;;;;;;5072933;28;20029;-69
2022/09/29 07:14:59;;;;;;;3.95;2.60;;;9.30;99.90;;;;;;5073260;28;20029;-69
2022/09/29 07:17:25;;;;;;;4.05;2.70;;;9.30;99.90;;;;;;5072462;28;20103;-69
2022/09/29 07:19:53;;;;;;;4.45;2.80;;;9.40;99.90;;;;;;5073124;28;20412;-69
2022/09/29 07:22:19;;;;;;;2.83;2.28;;;9.40;99.90;;;;;;5072855;28;20047;-69
2022/09/29 07:24:46;;;;;;;4.68;3.05;;;9.40;99.90;;;;;;5073115;28;20017;-69
2022/09/29 07:27:12;;;;;;;5.80;2.65;;;9.40;99.90;;;;;;5073139;28;20013;-68
2022/09/29 07:29:37;;;;;;;4.20;2.45;;;9.40;99.90;;;;;;5073026;28;20118;-68
2022/09/29 07:32:03;;;;;;;3.92;2.20;;;9.40;99.90;;;;;;5072233;28;20060;-69
2022/09/29 07:34:28;;;;;;;6.47;2.65;;;9.40;99.90;;;;;;5075816;28;20025;-68
2022/09/29 07:36:54;;;;;;;4.88;2.83;;;9.50;99.90;;;;;;5076540;28;20103;-68
2022/09/29 07:39:22;;;;;;;12.15;3.10;;;9.40;99.90;;;;;;5076610;28;20449;-68
2022/09/29 07:41:48;;;;;;;5.55;2.70;;;9.40;99.90;;;;;;5076409;28;20028;-68
2022/09/29 07:44:14;;;;;;;11.25;3.72;;;9.40;99.90;;;;;;5076208;28;20025;-68
2022/09/29 07:46:39;;;;;;;7.63;2.75;;;9.50;99.90;;;;;;5076322;28;20021;-68
2022/09/29 07:49:05;;;;;;;4.82;2.85;;;9.50;99.90;;;;;;5076352;28;20059;-68
2022/09/29 07:51:31;;;;;;;6.65;2.45;;;9.50;99.90;;;;;;5076294;28;20082;-68
2022/09/29 07:54:03;;;;;;;6.40;2.17;;;9.50;99.90;;;;;;5075952;28;20025;-68
2022/09/29 07:56:29;;;;;;;5.88;2.30;;;9.60;99.90;;;;;;5076533;28;20017;-68
2022/09/29 07:58:55;;;;;;;4.22;2.65;;;9.60;99.90;;;;;;5076354;28;20113;-68
2022/09/29 08:01:21;;;;;;;5.35;3.25;;;9.70;99.90;;;;;;5075914;28;20514;-68
2022/09/29 08:03:52;;;;;;;4.43;2.83;;;9.70;99.90;;;;;;5075520;28;20461;-68
2022/09/29 08:06:19;;;;;;;6.10;3.33;;;9.70;99.90;;;;;;5076382;28;20055;-67
2022/09/29 08:08:45;;;;;;;7.63;5.90;;;9.80;99.90;;;;;;5076247;28;20028;-67
2022/09/29 08:11:13;;;;;;;8.60;4.65;;;9.80;99.90;;;;;;5076207;28;20487;-68
2022/09/29 08:13:39;;;;;;;13.80;9.52;;;9.80;99.90;;;;;;5076400;28;20029;-67
2022/09/29 08:16:07;;;;;;;39.28;28.60;;;9.80;99.90;;;;;;5075865;28;20082;-67
2022/09/29 08:18:34;;;;;;;16.58;11.32;;;9.90;99.90;;;;;;5075713;28;20067;-67
2022/09/29 08:20:59;;;;;;;18.95;7.75;;;9.90;99.90;;;;;;5075774;28;20033;-67
2022/09/29 08:23:25;;;;;;;7.78;5.97;;;10.00;99.90;;;;;;5075824;28;20024;-67
2022/09/29 08:26:02;;;;;;;10.10;6.15;;;9.90;99.90;;;;;;5075933;28;20384;-67
2022/09/29 08:28:29;;;;;;;9.70;6.65;;;9.90;99.90;;;;;;5075145;28;20461;-65
2022/09/29 08:30:55;;;;;;;9.90;4.50;;;9.90;99.90;;;;;;5075599;28;20029;-66
2022/09/29 08:33:21;;;;;;;8.85;5.55;;;9.90;99.90;;;;;;5075971;28;20036;-67
2022/09/29 08:35:55;;;;;;;10.18;5.07;;;9.90;99.90;;;;;;5075354;28;20023;-66
2022/09/29 08:38:20;;;;;;;5.20;3.65;;;9.80;99.90;;;;;;5075276;28;20099;-66
2022/09/29 08:40:46;;;;;;;4.28;3.88;;;9.80;99.90;;;;;;5075282;28;20079;-66
2022/09/29 08:43:38;;;;;;;4.00;3.60;;;9.90;99.90;;;;;;5075749;28;20042;-66
2022/09/29 08:46:20;;;;;;;5.75;3.55;;;9.80;99.90;;;;;;5070717;28;20499;-66
2022/09/29 08:48:46;;;;;;;6.22;3.47;;;9.90;99.90;;;;;;5075654;28;20027;-67
2022/09/29 08:51:36;;;;;;;4.20;2.63;;;9.90;99.90;;;;;;5074561;28;20492;-67
2022/09/29 08:54:12;;;;;;;6.68;4.03;;;9.90;99.90;;;;;;5074181;28;20040;-66
2022/09/29 08:56:38;;;;;;;5.22;3.35;;;9.90;99.90;;;;;;5075276;28;20123;-66
2022/09/29 08:59:03;;;;;;;10.18;4.40;;;9.80;99.90;;;;;;5074942;28;20108;-67
2022/09/29 09:01:52;;;;;;;10.20;4.88;;;9.90;99.90;;;;;;5106029;22;20382;-68
2022/09/29 09:04:42;;;;;;;7.40;4.07;;;9.90;99.90;;;;;;5033852;28;20033;-68
2022/09/29 09:07:34;;;;;;;8.73;3.53;;;9.90;99.90;;;;;;5035624;28;20380;-68
2022/09/29 09:10:31;;;;;;;7.78;4.20;;;9.90;99.90;;;;;;5034663;28;20022;-68
2022/09/29 09:13:23;;;;;;;8.20;5.20;;;10.00;99.90;;;;;;5029638;28;20026;-68
2022/09/29 09:15:55;;;;;;;11.90;4.22;;;10.00;99.90;;;;;;5015633;28;20076;-68
2022/09/29 09:18:41;;;;;;;9.50;5.63;;;10.00;99.90;;;;;;5015032;28;20066;-68
2022/09/29 09:21:31;;;;;;;8.88;5.65;;;10.00;99.90;;;;;;5014860;28;20065;-69
2022/09/29 09:24:14;;;;;;;10.77;5.30;;;10.00;99.90;;;;;;5014509;28;20022;-69
2022/09/29 09:26:43;;;;;;;12.00;5.57;;;10.00;99.90;;;;;;5015087;28;20416;-69
2022/09/29 09:29:33;;;;;;;11.82;5.75;;;10.10;99.90;;;;;;5015029;28;20088;-69
2022/09/29 09:32:24;;;;;;;9.52;6.20;;;10.10;99.90;;;;;;5014807;28;20046;-69
2022/09/29 09:34:55;;;;;;;13.43;6.22;;;10.20;99.90;;;;;;5014457;28;20516;-69
2022/09/29 09:37:24;;;;;;;13.00;5.35;;;10.20;99.90;;;;;;5015211;28;20029;-69
2022/09/29 09:40:00;;;;;;;11.52;6.03;;;10.20;99.90;;;;;;5014639;28;20037;-71
2022/09/29 09:42:30;;;;;;;14.50;7.05;;;10.20;99.90;;;;;;5014570;28;20065;-70
2022/09/29 09:45:04;;;;;;;16.08;7.10;;;10.30;99.90;;;;;;5014817;28;20064;-70
2022/09/29 09:47:36;;;;;;;18.48;8.88;;;10.30;99.90;;;;;;5013147;28;20022;-70
2022/09/29 09:50:12;;;;;;;10.52;7.75;;;10.30;99.90;;;;;;5013924;28;20030;-70
2022/09/29 09:53:04;;;;;;;15.32;8.48;;;10.40;99.90;;;;;;5014363;28;20022;-70
2022/09/29 09:55:35;;;;;;;15.10;7.93;;;10.40;99.90;;;;;;5014730;28;20072;-70
2022/09/29 09:58:22;;;;;;;11.93;8.40;;;10.40;99.90;;;;;;5013740;28;20029;-70
2022/09/29 10:00:57;;;;;;;26.00;13.18;;;10.50;99.90;;;;;;5014487;28;20065;-69
2022/09/29 10:03:22;;;;;;;23.25;9.40;;;10.60;99.90;;;;;;5014059;28;20030;-69
2022/09/29 10:05:49;;;;;;;23.95;9.63;;;10.70;99.90;;;;;;5013862;28;20026;-70
2022/09/29 10:08:26;;;;;;;23.33;8.70;;;10.70;99.90;;;;;;5013873;28;20037;-70
2022/09/29 10:10:53;;;;;;;16.77;9.07;;;10.80;99.90;;;;;;5014358;28;20537;-70
2022/09/29 10:13:19;;;;;;;20.63;8.98;;;10.80;99.90;;;;;;5014046;28;20058;-70
2022/09/29 10:16:08;;;;;;;18.63;10.52;;;10.80;99.90;;;;;;5014049;28;20145;-70
2022/09/29 10:18:45;;;;;;;17.60;9.93;;;10.90;99.90;;;;;;5014225;28;20037;-70
2022/09/29 10:21:40;;;;;;;17.00;10.27;;;10.90;99.90;;;;;;5013331;28;20026;-70
2022/09/29 10:24:26;;;;;;;16.63;8.73;;;10.90;99.90;;;;;;5013851;28;20018;-70
2022/09/29 10:26:55;;;;;;;20.40;9.00;;;11.00;99.90;;;;;;5014737;28;20069;-70
2022/09/29 10:29:43;;;;;;;16.88;9.15;;;11.00;99.90;;;;;;5014302;28;20049;-70
2022/09/29 10:32:15;;;;;;;17.45;9.52;;;11.00;99.90;;;;;;5013325;28;20029;-70
2022/09/29 10:34:46;;;;;;;20.77;9.10;;;11.10;99.90;;;;;;5014432;28;20087;-69
2022/09/29 10:37:34;;;;;;;18.15;8.77;;;11.10;99.90;;;;;;5013745;28;20025;-69
2022/09/29 10:40:16;;;;;;;19.00;7.88;;;11.20;99.90;;;;;;5018896;28;20074;-69
2022/09/29 10:42:47;;;;;;;19.85;8.90;;;11.30;99.90;;;;;;5033359;28;20021;-69
2022/09/29 10:45:22;;;;;;;25.42;7.72;;;11.40;99.90;;;;;;5033685;28;20021;-69
2022/09/29 10:48:06;;;;;;;18.67;7.90;;;11.50;99.90;;;;;;5033549;28;20029;-69
2022/09/29 10:50:48;;;;;;;17.95;8.98;;;11.50;99.90;;;;;;5033353;28;20029;-69
2022/09/29 10:53:34;;;;;;;24.83;9.57;;;11.60;99.90;;;;;;5021087;28;20072;-69
2022/09/29 10:56:07;;;;;;;23.08;9.32;;;11.70;99.90;;;;;;5013513;28;20101;-69
2022/09/29 10:58:42;;;;;;;22.35;9.10;;;11.90;99.90;;;;;;5013939;28;20022;-69
2022/09/29 11:01:11;;;;;;;20.75;9.93;;;12.10;99.90;;;;;;5011523;28;20504;-69
2022/09/29 11:03:52;;;;;;;19.98;9.32;;;12.30;99.90;;;;;;5016584;28;20366;-69
2022/09/29 11:06:26;;;;;;;23.02;8.27;;;12.30;99.90;;;;;;5033504;28;20025;-69
2022/09/29 11:08:54;;;;;;;;;;;12.40;99.90;;;;;;5035435;28;20128;-69
2022/09/29 11:11:24;;;;;;;14.57;7.50;;;12.40;99.90;;;;;;5037028;28;20426;-69
2022/09/29 11:13:51;;;;;;;16.67;7.00;;;12.50;99.90;;;;;;5035830;28;20448;-69
2022/09/29 11:16:39;;;;;;;15.40;6.13;;;12.50;99.90;;;;;;5036550;28;20082;-69
2022/09/29 11:19:11;;;;;;;17.92;6.80;;;12.60;99.90;;;;;;5036538;28;20102;-69
2022/09/29 11:21:45;;;;;;;9.25;5.63;;;12.70;99.90;;;;;;5037057;28;20083;-69
2022/09/29 11:24:32;;;;;;;20.08;6.55;;;12.90;99.90;;;;;;5036882;28;20057;-69
2022/09/29 11:27:09;;;;;;;12.57;4.95;;;13.00;99.90;;;;;;5036409;28;20389;-69
2022/09/29 11:29:54;;;;;;;20.70;7.50;;;12.80;99.90;;;;;;5037091;28;20068;-69
2022/09/29 11:32:25;;;;;;;19.85;10.05;;;12.80;99.90;;;;;;5036981;28;20064;-69
2022/09/29 11:35:09;;;;;;;104.97;49.85;;;12.80;99.90;;;;;;5036645;28;20068;-69
2022/09/29 11:37:58;;;;;;;167.10;73.78;;;12.80;99.90;;;;;;5036949;28;20037;-69
2022/09/29 11:40:53;;;;;;;35.22;21.80;;;12.80;99.90;;;;;;5037138;28;20593;-69
2022/09/29 11:43:22;;;;;;;23.77;9.55;;;12.90;99.90;;;;;;5036465;28;20025;-69
2022/09/29 11:46:10;;;;;;;18.30;12.52;;;13.20;99.90;;;;;;5036336;28;20033;-69
2022/09/29 11:48:42;;;;;;;49.38;13.40;;;13.20;99.90;;;;;;5037055;28;20592;-69
2022/09/29 11:51:28;;;;;;;47.23;10.73;;;13.30;99.90;;;;;;5036365;28;20126;-70
2022/09/29 11:54:12;;;;;;;23.92;7.75;;;13.20;99.90;;;;;;5035902;28;20079;-70
2022/09/29 11:57:16;;;;;;;11.85;5.25;;;13.20;99.90;;;;;;5036639;28;20532;-70
2022/09/29 11:59:56;;;;;;;12.50;5.18;;;13.00;99.90;;;;;;5036768;28;20034;-70
2022/09/29 12:02:43;;;;;;;9.00;4.25;;;13.00;99.90;;;;;;5036165;28;20033;-70
2022/09/29 12:05:22;;;;;;;11.90;4.80;;;13.10;99.90;;;;;;5035734;28;20029;-70
2022/09/29 12:08:07;;;;;;;22.17;7.55;;;13.00;99.90;;;;;;5036491;28;20048;-70
2022/09/29 12:10:44;;;;;;;12.27;6.35;;;13.00;99.90;;;;;;5036227;28;20418;-70
2022/09/29 12:13:31;;;;;;;17.73;4.63;;;13.00;99.90;;;;;;5035959;28;20488;-70
2022/09/29 12:16:14;;;;;;;8.93;4.72;;;13.10;99.90;;;;;;5036287;28;20021;-70
2022/09/29 12:18:47;;;;;;;14.23;5.20;;;13.10;99.90;;;;;;5035577;28;20029;-70
2022/09/29 12:21:16;;;;;;;10.90;4.97;;;13.10;99.90;;;;;;5034505;28;20021;-70
2022/09/29 12:23:44;;;;;;;10.63;5.15;;;13.00;99.90;;;;;;5035821;28;20072;-70
2022/09/29 12:26:15;;;;;;;20.05;5.13;;;13.10;99.90;;;;;;5036301;28;20099;-70
2022/09/29 12:28:49;;;;;;;11.45;5.35;;;12.90;99.90;;;;;;5035320;28;20119;-70
2022/09/29 12:31:30;;;;;;;10.13;5.40;;;12.90;99.90;;;;;;5035664;28;20024;-70
2022/09/29 12:34:10;;;;;;;15.43;4.63;;;12.80;99.90;;;;;;5035712;28;20022;-70
2022/09/29 12:36:52;;;;;;;10.48;4.70;;;12.70;99.90;;;;;;5035900;28;20030;-70
2022/09/29 12:39:24;;;;;;;17.80;5.05;;;12.70;99.90;;;;;;5035450;28;20084;-70
2022/09/29 12:42:06;;;;;;;11.48;3.78;;;12.80;99.90;;;;;;5035198;28;20029;-70
2022/09/29 12:45:01;;;;;;;8.57;3.70;;;12.90;99.90;;;;;;5035754;28;20053;-70
2022/09/29 12:47:36;;;;;;;21.92;8.98;;;13.00;99.90;;;;;;5035786;28;20025;-70
2022/09/29 12:50:04;;;;;;;19.02;9.27;;;13.00;99.90;;;;;;5036104;28;20029;-71
2022/09/29 12:52:44;;;;;;;33.58;14.88;;;13.10;99.90;;;;;;5035812;28;20067;-70
2022/09/29 12:55:18;;;;;;;58.00;23.98;;;13.30;99.90;;;;;;5035025;28;20028;-70
2022/09/29 12:57:46;;;;;;;50.95;22.48;;;13.50;99.90;;;;;;5035778;28;20026;-70
2022/09/29 13:00:14;;;;;;;37.78;16.02;;;13.50;99.90;;;;;;5035362;28;20472;-70
2022/09/29 13:03:07;;;;;;;27.58;12.70;;;13.50;99.90;;;;;;5035069;28;20036;-70
2022/09/29 13:05:47;;;;;;;43.22;18.92;;;13.40;99.90;;;;;;5034627;28;20014;-70
2022/09/29 13:08:34;;;;;;;18.08;10.00;;;13.30;99.90;;;;;;5035337;28;20420;-70
2022/09/29 13:11:13;;;;;;;10.38;4.38;;;13.30;99.90;;;;;;5035267;28;20033;-70
2022/09/29 13:13:45;;;;;;;7.65;4.82;;;13.20;99.90;;;;;;5033631;28;20032;-70
2022/09/29 13:16:27;;;;;;;9.30;4.18;;;13.10;99.90;;;;;;5034860;28;20013;-70